sensor_id;sensor_type;location;lat;lon;timestamp;pressure;altitude;pressure_sealevel;temperature;humidity
2397;BME280;1209;48.410;9.054;2024-03-17T00:00:15;96901.88;;;8.28;100.00
2397;BME280;1209;48.410;9.054;2024-03-17T00:02:43;96894.56;;;8.13;100.00
2397;BME280;1209;48.410;9.054;2024-03-17T00:05:09;96892.34;;;8.18;100.00
2397;BME280;1209;48.410;9.054;2024-03-17T00:07:34;96895.97;;;8.35;100.00
2397;BME280;1209;48.410;9.054;2024-03-17T00:10:00;96907.00;;;8.47;100.00
2397;BME280;1209;48.410;9.054;2024-03-17T00:12:25;96912.03;;;8.58;100.00
2397;BME280;1209;48.410;9.054;2024-03-17T00:14:51;96911.06;;;8.59;100.00
2397;BME280;1209;48.410;9.054;2024-03-17T00:17:16;96907.94;;;8.56;100.00
2397;BME280;1209;48.410;9.054;2024-03-17T00:19:41;96909.19;;;8.51;100.00
2397;BME280;1209;48.410;9.054;2024-03-17T00:22:08;96901.50;;;8.50;100.00
2397;BME280;1209;48.410;9.054;2024-03-17T00:24:38;96913.06;;;8.38;100.00
2397;BME280;1209;48.410;9.054;2024-03-17T00:27:10;96913.38;;;8.35;100.00
2397;BME280;1209;48.410;9.054;2024-03-17T00:29:36;96909.63;;;8.00;100.00
2397;BME280;1209;48.410;9.054;2024-03-17T00:32:03;96903.91;;;7.97;100.00
2397;BME280;1209;48.410;9.054;2024-03-17T00:34:28;96896.44;;;8.21;100.00
2397;BME280;1209;48.410;9.054;2024-03-17T00:36:53;96908.44;;;8.32;100.00
2397;BME280;1209;48.410;9.054;2024-03-17T00:39:19;96908.69;;;8.01;100.00
2397;BME280;1209;48.410;9.054;2024-03-17T00:41:44;96896.34;;;7.56;100.00
2397;BME280;1209;48.410;9.054;2024-03-17T00:44:09;96895.03;;;7.89;100.00
2397;BME280;1209;48.410;9.054;2024-03-17T00:46:35;96905.13;;;8.02;100.00
2397;BME280;1209;48.410;9.054;2024-03-17T00:49:00;96892.09;;;8.12;100.00
2397;BME280;1209;48.410;9.054;2024-03-17T00:51:26;96896.75;;;8.08;100.00
2397;BME280;1209;48.410;9.054;2024-03-17T00:53:51;96890.13;;;7.86;100.00
2397;BME280;1209;48.410;9.054;2024-03-17T00:56:17;96884.19;;;7.94;100.00
2397;BME280;1209;48.410;9.054;2024-03-17T00:58:42;96884.16;;;8.13;100.00
2397;BME280;1209;48.410;9.054;2024-03-17T01:01:09;96889.53;;;8.30;100.00
2397;BME280;1209;48.410;9.054;2024-03-17T01:03:35;96893.91;;;8.29;100.00
2397;BME280;1209;48.410;9.054;2024-03-17T01:06:03;96887.50;;;8.33;100.00
2397;BME280;1209;48.410;9.054;2024-03-17T01:08:29;96879.41;;;8.36;100.00
2397;BME280;1209;48.410;9.054;2024-03-17T01:10:55;96883.78;;;8.36;100.00
2397;BME280;1209;48.410;9.054;2024-03-17T01:13:20;96885.94;;;8.40;100.00
2397;BME280;1209;48.410;9.054;2024-03-17T01:15:45;96878.72;;;8.34;100.00
2397;BME280;1209;48.410;9.054;2024-03-17T01:18:11;96883.06;;;8.43;100.00
2397;BME280;1209;48.410;9.054;2024-03-17T01:20:38;96879.09;;;8.39;100.00
2397;BME280;1209;48.410;9.054;2024-03-17T01:23:04;96865.78;;;8.15;100.00
2397;BME280;1209;48.410;9.054;2024-03-17T01:25:30;96867.75;;;8.03;100.00
2397;BME280;1209;48.410;9.054;2024-03-17T01:27:57;96861.38;;;7.88;100.00
2397;BME280;1209;48.410;9.054;2024-03-17T01:30:23;96848.00;;;7.83;100.00
2397;BME280;1209;48.410;9.054;2024-03-17T01:32:48;96843.94;;;7.98;100.00
2397;BME280;1209;48.410;9.054;2024-03-17T01:35:14;96860.72;;;8.13;100.00
2397;BME280;1209;48.410;9.054;2024-03-17T01:37:40;96859.78;;;8.14;100.00
2397;BME280;1209;48.410;9.054;2024-03-17T01:40:06;96855.91;;;8.18;100.00
2397;BME280;1209;48.410;9.054;2024-03-17T01:42:37;96856.50;;;8.40;100.00
2397;BME280;1209;48.410;9.054;2024-03-17T01:45:30;96853.06;;;8.39;100.00
2397;BME280;1209;48.410;9.054;2024-03-17T01:47:56;96844.91;;;8.25;100.00
2397;BME280;1209;48.410;9.054;2024-03-17T01:50:37;96835.91;;;8.19;100.00
2397;BME280;1209;48.410;9.054;2024-03-17T01:53:04;96831.25;;;8.23;100.00
2397;BME280;1209;48.410;9.054;2024-03-17T01:55:34;96834.66;;;8.50;100.00
2397;BME280;1209;48.410;9.054;2024-03-17T01:58:02;96826.78;;;8.33;100.00
2397;BME280;1209;48.410;9.054;2024-03-17T02:00:28;96829.97;;;8.09;100.00
2397;BME280;1209;48.410;9.054;2024-03-17T02:02:56;96820.47;;;8.17;100.00
2397;BME280;1209;48.410;9.054;2024-03-17T02:05:22;96825.75;;;8.26;100.00
2397;BME280;1209;48.410;9.054;2024-03-17T02:07:48;96823.00;;;8.27;100.00
2397;BME280;1209;48.410;9.054;2024-03-17T02:10:14;96805.72;;;8.08;100.00
2397;BME280;1209;48.410;9.054;2024-03-17T02:12:40;96804.78;;;8.27;100.00
2397;BME280;1209;48.410;9.054;2024-03-17T02:15:06;96812.97;;;8.32;100.00
2397;BME280;1209;48.410;9.054;2024-03-17T02:17:32;96807.50;;;8.35;100.00
2397;BME280;1209;48.410;9.054;2024-03-17T02:19:58;96806.47;;;8.46;100.00
2397;BME280;1209;48.410;9.054;2024-03-17T02:22:23;96805.41;;;8.39;100.00
2397;BME280;1209;48.410;9.054;2024-03-17T02:24:49;96811.16;;;8.42;100.00
2397;BME280;1209;48.410;9.054;2024-03-17T02:27:14;96803.84;;;8.46;100.00
2397;BME280;1209;48.410;9.054;2024-03-17T02:29:39;96797.28;;;8.51;100.00
2397;BME280;1209;48.410;9.054;2024-03-17T02:32:06;96794.59;;;8.61;100.00
2397;BME280;1209;48.410;9.054;2024-03-17T02:34:35;96797.69;;;8.47;100.00
2397;BME280;1209;48.410;9.054;2024-03-17T02:37:01;96802.81;;;8.39;100.00
2397;BME280;1209;48.410;9.054;2024-03-17T02:39:28;96798.19;;;8.33;100.00
2397;BME280;1209;48.410;9.054;2024-03-17T02:41:56;96795.63;;;8.23;100.00
2397;BME280;1209;48.410;9.054;2024-03-17T02:44:22;96789.84;;;8.29;100.00
2397;BME280;1209;48.410;9.054;2024-03-17T02:46:47;96788.66;;;8.24;100.00
2397;BME280;1209;48.410;9.054;2024-03-17T02:49:13;96790.34;;;8.15;100.00
2397;BME280;1209;48.410;9.054;2024-03-17T02:51:39;96787.00;;;8.23;100.00
2397;BME280;1209;48.410;9.054;2024-03-17T02:54:05;96786.28;;;8.30;100.00
2397;BME280;1209;48.410;9.054;2024-03-17T02:56:31;96786.09;;;8.41;100.00
2397;BME280;1209;48.410;9.054;2024-03-17T02:58:56;96777.03;;;8.45;100.00
2397;BME280;1209;48.410;9.054;2024-03-17T03:01:21;96780.59;;;8.44;100.00
2397;BME280;1209;48.410;9.054;2024-03-17T03:03:47;96781.19;;;8.38;100.00
2397;BME280;1209;48.410;9.054;2024-03-17T03:06:13;96776.50;;;8.42;100.00
2397;BME280;1209;48.410;9.054;2024-03-17T03:08:39;96771.16;;;8.43;100.00
2397;BME280;1209;48.410;9.054;2024-03-17T03:11:08;96775.91;;;8.48;100.00
2397;BME280;1209;48.410;9.054;2024-03-17T03:13:43;96779.16;;;8.50;100.00
2397;BME280;1209;48.410;9.054;2024-03-17T03:16:13;96777.97;;;8.44;100.00
2397;BME280;1209;48.410;9.054;2024-03-17T03:18:39;96777.47;;;8.41;100.00
2397;BME280;1209;48.410;9.054;2024-03-17T03:21:05;96777.16;;;8.44;100.00
2397;BME280;1209;48.410;9.054;2024-03-17T03:23:31;96769.13;;;8.37;100.00
2397;BME280;1209;48.410;9.054;2024-03-17T03:25:58;96778.78;;;8.27;100.00
2397;BME280;1209;48.410;9.054;2024-03-17T03:28:24;96775.47;;;8.35;100.00
2397;BME280;1209;48.410;9.054;2024-03-17T03:30:50;96781.03;;;8.40;100.00
2397;BME280;1209;48.410;9.054;2024-03-17T03:33:16;96775.72;;;8.14;100.00
2397;BME280;1209;48.410;9.054;2024-03-17T03:35:43;96771.41;;;8.05;100.00
2397;BME280;1209;48.410;9.054;2024-03-17T03:38:08;96771.78;;;8.28;100.00
2397;BME280;1209;48.410;9.054;2024-03-17T03:40:34;96771.88;;;8.36;100.00
2397;BME280;1209;48.410;9.054;2024-03-17T03:42:59;96769.66;;;8.41;100.00
2397;BME280;1209;48.410;9.054;2024-03-17T03:45:24;96764.25;;;8.52;100.00
2397;BME280;1209;48.410;9.054;2024-03-17T03:47:51;96767.41;;;8.46;100.00
2397;BME280;1209;48.410;9.054;2024-03-17T03:50:20;96759.31;;;8.49;100.00
2397;BME280;1209;48.410;9.054;2024-03-17T03:52:46;96757.72;;;8.20;100.00
2397;BME280;1209;48.410;9.054;2024-03-17T03:55:11;96764.78;;;8.10;100.00
2397;BME280;1209;48.410;9.054;2024-03-17T03:57:40;96756.13;;;7.92;100.00
2397;BME280;1209;48.410;9.054;2024-03-17T04:00:07;96751.16;;;7.99;100.00
2397;BME280;1209;48.410;9.054;2024-03-17T04:02:39;96760.00;;;8.33;100.00
2397;BME280;1209;48.410;9.054;2024-03-17T04:05:04;96754.03;;;8.41;100.00
2397;BME280;1209;48.410;9.054;2024-03-17T04:07:30;96757.16;;;8.44;100.00
2397;BME280;1209;48.410;9.054;2024-03-17T04:09:55;96755.06;;;8.48;100.00
2397;BME280;1209;48.410;9.054;2024-03-17T04:12:21;96759.31;;;8.49;100.00
2397;BME280;1209;48.410;9.054;2024-03-17T04:14:46;96761.00;;;8.23;100.00
2397;BME280;1209;48.410;9.054;2024-03-17T04:17:12;96758.94;;;7.99;100.00
2397;BME280;1209;48.410;9.054;2024-03-17T04:19:38;96758.78;;;7.82;100.00
2397;BME280;1209;48.410;9.054;2024-03-17T04:22:03;96764.00;;;8.00;100.00
2397;BME280;1209;48.410;9.054;2024-03-17T04:24:29;96766.03;;;8.06;100.00
2397;BME280;1209;48.410;9.054;2024-03-17T04:26:54;96757.03;;;7.73;100.00
2397;BME280;1209;48.410;9.054;2024-03-17T04:29:20;96752.00;;;7.72;100.00
2397;BME280;1209;48.410;9.054;2024-03-17T04:31:45;96754.16;;;7.76;100.00
2397;BME280;1209;48.410;9.054;2024-03-17T04:34:14;96759.16;;;7.87;100.00
2397;BME280;1209;48.410;9.054;2024-03-17T04:36:40;96766.81;;;7.89;100.00
2397;BME280;1209;48.410;9.054;2024-03-17T04:39:05;96762.47;;;7.80;100.00
2397;BME280;1209;48.410;9.054;2024-03-17T04:41:33;96767.56;;;7.99;100.00
2397;BME280;1209;48.410;9.054;2024-03-17T04:44:00;96759.00;;;8.16;100.00
2397;BME280;1209;48.410;9.054;2024-03-17T04:46:25;96762.72;;;8.32;100.00
2397;BME280;1209;48.410;9.054;2024-03-17T04:48:51;96765.16;;;8.15;100.00
2397;BME280;1209;48.410;9.054;2024-03-17T04:51:17;96760.91;;;7.69;100.00
2397;BME280;1209;48.410;9.054;2024-03-17T04:53:42;96765.94;;;7.71;100.00
2397;BME280;1209;48.410;9.054;2024-03-17T04:56:07;96762.94;;;7.93;100.00
2397;BME280;1209;48.410;9.054;2024-03-17T04:58:34;96758.25;;;8.06;100.00
2397;BME280;1209;48.410;9.054;2024-03-17T05:01:07;96760.34;;;8.20;100.00
2397;BME280;1209;48.410;9.054;2024-03-17T05:03:34;96770.06;;;8.18;100.00
2397;BME280;1209;48.410;9.054;2024-03-17T05:06:03;96773.19;;;8.04;100.00
2397;BME280;1209;48.410;9.054;2024-03-17T05:08:30;96765.75;;;8.09;100.00
2397;BME280;1209;48.410;9.054;2024-03-17T05:11:00;96767.97;;;8.04;100.00
2397;BME280;1209;48.410;9.054;2024-03-17T05:13:26;96769.41;;;8.16;100.00
2397;BME280;1209;48.410;9.054;2024-03-17T05:15:52;96776.41;;;8.34;100.00
2397;BME280;1209;48.410;9.054;2024-03-17T05:18:18;96769.09;;;8.19;100.00
2397;BME280;1209;48.410;9.054;2024-03-17T05:20:45;96772.06;;;8.25;100.00
2397;BME280;1209;48.410;9.054;2024-03-17T05:23:12;96775.59;;;8.33;100.00
2397;BME280;1209;48.410;9.054;2024-03-17T05:25:37;96771.63;;;8.29;100.00
2397;BME280;1209;48.410;9.054;2024-03-17T05:28:03;96769.84;;;8.12;100.00
2397;BME280;1209;48.410;9.054;2024-03-17T05:30:29;96769.09;;;8.19;100.00
2397;BME280;1209;48.410;9.054;2024-03-17T05:32:55;96769.09;;;8.19;100.00
2397;BME280;1209;48.410;9.054;2024-03-17T05:35:21;96772.38;;;8.21;100.00
2397;BME280;1209;48.410;9.054;2024-03-17T05:37:48;96769.78;;;8.21;100.00
2397;BME280;1209;48.410;9.054;2024-03-17T05:40:14;96769.78;;;8.21;100.00
2397;BME280;1209;48.410;9.054;2024-03-17T05:42:41;96770.81;;;8.29;100.00
2397;BME280;1209;48.410;9.054;2024-03-17T05:45:09;96771.03;;;8.17;100.00
2397;BME280;1209;48.410;9.054;2024-03-17T05:47:38;96766.13;;;8.14;100.00
2397;BME280;1209;48.410;9.054;2024-03-17T05:50:04;96756.25;;;8.18;100.00
2397;BME280;1209;48.410;9.054;2024-03-17T05:52:29;96760.63;;;8.17;100.00
2397;BME280;1209;48.410;9.054;2024-03-17T05:54:55;96763.38;;;8.16;100.00
2397;BME280;1209;48.410;9.054;2024-03-17T05:57:21;96755.81;;;8.23;100.00
2397;BME280;1209;48.410;9.054;2024-03-17T05:59:48;96769.69;;;8.31;100.00
2397;BME280;1209;48.410;9.054;2024-03-17T06:02:13;96764.50;;;8.31;100.00
2397;BME280;1209;48.410;9.054;2024-03-17T06:04:40;96764.94;;;8.27;100.00
2397;BME280;1209;48.410;9.054;2024-03-17T06:07:05;96769.03;;;8.29;100.00
2397;BME280;1209;48.410;9.054;2024-03-17T06:09:31;96770.00;;;8.28;100.00
2397;BME280;1209;48.410;9.054;2024-03-17T06:11:57;96766.34;;;8.21;100.00
2397;BME280;1209;48.410;9.054;2024-03-17T06:14:22;96762.13;;;8.20;100.00
2397;BME280;1209;48.410;9.054;2024-03-17T06:16:48;96759.47;;;8.02;100.00
2397;BME280;1209;48.410;9.054;2024-03-17T06:19:14;96763.75;;;7.94;100.00
2397;BME280;1209;48.410;9.054;2024-03-17T06:21:40;96765.91;;;8.08;100.00
2397;BME280;1209;48.410;9.054;2024-03-17T06:24:05;96771.25;;;8.06;100.00
2397;BME280;1209;48.410;9.054;2024-03-17T06:26:32;96773.84;;;8.06;100.00
2397;BME280;1209;48.410;9.054;2024-03-17T06:29:02;96775.56;;;7.88;100.00
2397;BME280;1209;48.410;9.054;2024-03-17T06:31:27;96782.34;;;7.99;100.00
2397;BME280;1209;48.410;9.054;2024-03-17T06:33:52;96769.19;;;8.00;100.00
2397;BME280;1209;48.410;9.054;2024-03-17T06:36:18;96773.28;;;8.03;100.00
2397;BME280;1209;48.410;9.054;2024-03-17T06:38:44;96766.88;;;8.25;100.00
2397;BME280;1209;48.410;9.054;2024-03-17T06:41:10;96774.31;;;8.19;100.00
2397;BME280;1209;48.410;9.054;2024-03-17T06:43:35;96766.56;;;8.28;100.00
2397;BME280;1209;48.410;9.054;2024-03-17T06:46:01;96769.56;;;8.33;100.00
2397;BME280;1209;48.410;9.054;2024-03-17T06:48:27;96767.50;;;8.36;100.00
2397;BME280;1209;48.410;9.054;2024-03-17T06:50:54;96775.53;;;8.43;100.00
2397;BME280;1209;48.410;9.054;2024-03-17T06:53:23;96780.59;;;8.62;100.00
2397;BME280;1209;48.410;9.054;2024-03-17T06:55:56;96777.84;;;8.64;100.00
2397;BME280;1209;48.410;9.054;2024-03-17T06:58:22;96773.38;;;8.74;100.00
2397;BME280;1209;48.410;9.054;2024-03-17T07:00:56;96777.84;;;8.81;100.00
2397;BME280;1209;48.410;9.054;2024-03-17T07:03:39;96778.50;;;8.83;100.00
2397;BME280;1209;48.410;9.054;2024-03-17T07:06:06;96779.16;;;8.86;100.00
2397;BME280;1209;48.410;9.054;2024-03-17T07:08:33;96770.03;;;8.81;100.00
2397;BME280;1209;48.410;9.054;2024-03-17T07:11:02;96767.72;;;8.78;100.00
2397;BME280;1209;48.410;9.054;2024-03-17T07:13:31;96767.25;;;8.83;100.00
2397;BME280;1209;48.410;9.054;2024-03-17T07:15:57;96767.97;;;8.93;100.00
2397;BME280;1209;48.410;9.054;2024-03-17T07:18:25;96774.81;;;8.94;100.00
2397;BME280;1209;48.410;9.054;2024-03-17T07:20:50;96772.25;;;9.20;100.00
2397;BME280;1209;48.410;9.054;2024-03-17T07:23:16;96770.81;;;9.26;100.00
2397;BME280;1209;48.410;9.054;2024-03-17T07:25:42;96754.69;;;9.22;100.00
2397;BME280;1209;48.410;9.054;2024-03-17T07:28:08;96758.50;;;9.36;100.00
2397;BME280;1209;48.410;9.054;2024-03-17T07:30:34;96758.25;;;9.47;100.00
2397;BME280;1209;48.410;9.054;2024-03-17T07:33:00;96757.34;;;9.64;100.00
2397;BME280;1209;48.410;9.054;2024-03-17T07:35:27;96764.13;;;9.91;100.00
2397;BME280;1209;48.410;9.054;2024-03-17T07:37:53;96761.19;;;9.86;100.00
2397;BME280;1209;48.410;9.054;2024-03-17T07:40:18;96760.25;;;9.95;100.00
2397;BME280;1209;48.410;9.054;2024-03-17T07:42:44;96763.59;;;9.79;100.00
2397;BME280;1209;48.410;9.054;2024-03-17T07:45:10;96759.44;;;9.95;100.00
2397;BME280;1209;48.410;9.054;2024-03-17T07:47:36;96753.69;;;10.33;100.00
2397;BME280;1209;48.410;9.054;2024-03-17T07:50:02;96759.38;;;10.21;100.00
2397;BME280;1209;48.410;9.054;2024-03-17T07:52:30;96755.03;;;9.95;100.00
2397;BME280;1209;48.410;9.054;2024-03-17T07:54:56;96760.22;;;9.87;100.00
2397;BME280;1209;48.410;9.054;2024-03-17T07:57:22;96756.69;;;10.04;100.00
2397;BME280;1209;48.410;9.054;2024-03-17T07:59:51;96742.03;;;10.20;100.00
2397;BME280;1209;48.410;9.054;2024-03-17T08:02:16;96750.19;;;10.17;100.00
2397;BME280;1209;48.410;9.054;2024-03-17T08:04:43;96751.00;;;10.09;100.00
2397;BME280;1209;48.410;9.054;2024-03-17T08:07:10;96746.81;;;10.32;100.00
2397;BME280;1209;48.410;9.054;2024-03-17T08:09:36;96752.75;;;10.43;100.00
2397;BME280;1209;48.410;9.054;2024-03-17T08:12:01;96749.00;;;10.45;100.00
2397;BME280;1209;48.410;9.054;2024-03-17T08:14:32;96752.75;;;10.51;100.00
2397;BME280;1209;48.410;9.054;2024-03-17T08:16:58;96753.22;;;10.46;100.00
2397;BME280;1209;48.410;9.054;2024-03-17T08:19:24;96751.59;;;10.69;100.00
2397;BME280;1209;48.410;9.054;2024-03-17T08:21:49;96758.63;;;10.69;100.00
2397;BME280;1209;48.410;9.054;2024-03-17T08:24:14;96760.09;;;10.96;100.00
2397;BME280;1209;48.410;9.054;2024-03-17T08:26:40;96755.38;;;10.99;100.00
2397;BME280;1209;48.410;9.054;2024-03-17T08:29:06;96747.53;;;10.99;100.00
2397;BME280;1209;48.410;9.054;2024-03-17T08:31:31;96755.50;;;11.14;100.00
2397;BME280;1209;48.410;9.054;2024-03-17T08:33:57;96753.88;;;11.13;100.00
2397;BME280;1209;48.410;9.054;2024-03-17T08:36:23;96754.50;;;11.40;100.00
2397;BME280;1209;48.410;9.054;2024-03-17T08:38:50;96752.78;;;11.63;100.00
2397;BME280;1209;48.410;9.054;2024-03-17T08:41:15;96746.53;;;11.80;100.00
2397;BME280;1209;48.410;9.054;2024-03-17T08:43:41;96750.88;;;11.32;100.00
2397;BME280;1209;48.410;9.054;2024-03-17T08:46:09;96744.34;;;11.45;100.00
2397;BME280;1209;48.410;9.054;2024-03-17T08:48:36;96734.31;;;11.56;100.00
2397;BME280;1209;48.410;9.054;2024-03-17T08:51:04;96730.63;;;11.26;100.00
2397;BME280;1209;48.410;9.054;2024-03-17T08:53:30;96730.47;;;11.28;100.00
2397;BME280;1209;48.410;9.054;2024-03-17T08:55:56;96723.28;;;11.30;100.00
2397;BME280;1209;48.410;9.054;2024-03-17T08:58:22;96726.34;;;11.50;100.00
2397;BME280;1209;48.410;9.054;2024-03-17T09:00:48;96723.25;;;11.93;100.00
2397;BME280;1209;48.410;9.054;2024-03-17T09:03:14;96728.19;;;11.88;100.00
2397;BME280;1209;48.410;9.054;2024-03-17T09:05:42;96730.47;;;11.75;100.00
2397;BME280;1209;48.410;9.054;2024-03-17T09:08:08;96726.69;;;11.94;100.00
2397;BME280;1209;48.410;9.054;2024-03-17T09:10:39;96727.47;;;12.03;100.00
2397;BME280;1209;48.410;9.054;2024-03-17T09:13:05;96730.91;;;12.26;100.00
2397;BME280;1209;48.410;9.054;2024-03-17T09:15:30;96728.34;;;12.18;100.00
2397;BME280;1209;48.410;9.054;2024-03-17T09:17:55;96732.13;;;12.15;100.00
2397;BME280;1209;48.410;9.054;2024-03-17T09:20:21;96729.56;;;12.07;100.00
2397;BME280;1209;48.410;9.054;2024-03-17T09:22:46;96728.13;;;12.27;100.00
2397;BME280;1209;48.410;9.054;2024-03-17T09:25:11;96728.91;;;12.05;100.00
2397;BME280;1209;48.410;9.054;2024-03-17T09:27:37;96726.88;;;12.15;100.00
2397;BME280;1209;48.410;9.054;2024-03-17T09:30:05;96733.44;;;12.42;100.00
2397;BME280;1209;48.410;9.054;2024-03-17T09:32:37;96733.66;;;12.55;100.00
2397;BME280;1209;48.410;9.054;2024-03-17T09:35:04;96733.81;;;12.77;100.00
2397;BME280;1209;48.410;9.054;2024-03-17T09:37:31;96730.13;;;12.48;100.00
2397;BME280;1209;48.410;9.054;2024-03-17T09:39:57;96726.50;;;12.72;100.00
2397;BME280;1209;48.410;9.054;2024-03-17T09:42:25;96737.41;;;12.84;100.00
2397;BME280;1209;48.410;9.054;2024-03-17T09:44:52;96738.31;;;12.91;100.00
2397;BME280;1209;48.410;9.054;2024-03-17T09:47:20;96724.63;;;13.18;100.00
2397;BME280;1209;48.410;9.054;2024-03-17T09:49:47;96721.19;;;13.18;100.00
2397;BME280;1209;48.410;9.054;2024-03-17T09:52:21;96728.13;;;13.34;100.00
2397;BME280;1209;48.410;9.054;2024-03-17T09:54:50;96733.81;;;13.52;100.00
2397;BME280;1209;48.410;9.054;2024-03-17T09:57:19;96721.66;;;13.95;100.00
2397;BME280;1209;48.410;9.054;2024-03-17T09:59:51;96730.63;;;14.58;100.00
2397;BME280;1209;48.410;9.054;2024-03-17T10:02:17;96719.06;;;14.74;100.00
2397;BME280;1209;48.410;9.054;2024-03-17T10:04:43;96716.69;;;14.58;100.00
2397;BME280;1209;48.410;9.054;2024-03-17T10:07:09;96723.75;;;14.78;100.00
2397;BME280;1209;48.410;9.054;2024-03-17T10:09:34;96724.75;;;14.56;100.00
2397;BME280;1209;48.410;9.054;2024-03-17T10:11:59;96723.53;;;14.73;100.00
2397;BME280;1209;48.410;9.054;2024-03-17T10:14:25;96725.63;;;14.63;100.00
2397;BME280;1209;48.410;9.054;2024-03-17T10:16:50;96716.19;;;14.69;100.00
2397;BME280;1209;48.410;9.054;2024-03-17T10:19:25;96713.56;;;14.69;100.00
2397;BME280;1209;48.410;9.054;2024-03-17T10:21:58;96715.19;;;14.70;98.69
2397;BME280;1209;48.410;9.054;2024-03-17T10:24:26;96727.72;;;14.68;94.46
2397;BME280;1209;48.410;9.054;2024-03-17T10:26:56;96713.00;;;14.52;100.00
2397;BME280;1209;48.410;9.054;2024-03-17T10:29:29;96723.38;;;14.60;99.81
2397;BME280;1209;48.410;9.054;2024-03-17T10:32:03;96718.19;;;14.67;98.01
2397;BME280;1209;48.410;9.054;2024-03-17T10:34:30;96724.47;;;15.15;99.81
2397;BME280;1209;48.410;9.054;2024-03-17T10:39:36;96729.50;;;14.89;96.18
2397;BME280;1209;48.410;9.054;2024-03-17T10:42:04;96722.28;;;14.69;96.34
2397;BME280;1209;48.410;9.054;2024-03-17T10:44:31;96724.69;;;15.20;99.27
2397;BME280;1209;48.410;9.054;2024-03-17T10:46:59;96720.00;;;15.16;97.37
2397;BME280;1209;48.410;9.054;2024-03-17T10:49:31;96726.41;;;15.06;95.21
2397;BME280;1209;48.410;9.054;2024-03-17T10:51:59;96718.59;;;14.92;98.93
2397;BME280;1209;48.410;9.054;2024-03-17T10:54:25;96720.56;;;14.62;95.81
2397;BME280;1209;48.410;9.054;2024-03-17T10:56:57;96723.25;;;14.90;99.94
2397;BME280;1209;48.410;9.054;2024-03-17T10:59:41;96714.44;;;14.76;100.00
2397;BME280;1209;48.410;9.054;2024-03-17T11:02:27;96722.50;;;14.74;100.00
2397;BME280;1209;48.410;9.054;2024-03-17T11:05:02;96716.06;;;14.77;98.18
2397;BME280;1209;48.410;9.054;2024-03-17T11:07:29;96715.88;;;15.06;99.86
2397;BME280;1209;48.410;9.054;2024-03-17T11:09:57;96716.84;;;15.27;97.87
2397;BME280;1209;48.410;9.054;2024-03-17T11:12:50;96710.53;;;15.21;97.78
2397;BME280;1209;48.410;9.054;2024-03-17T11:17:47;96718.63;;;15.54;97.98
2397;BME280;1209;48.410;9.054;2024-03-17T11:20:20;96711.03;;;15.38;94.76
2397;BME280;1209;48.410;9.054;2024-03-17T11:22:49;96707.94;;;15.28;96.89
2397;BME280;1209;48.410;9.054;2024-03-17T11:39:09;96696.44;;;15.63;90.69
2397;BME280;1209;48.410;9.054;2024-03-17T11:41:45;96698.88;;;15.65;89.61
2397;BME280;1209;48.410;9.054;2024-03-17T11:46:39;96698.56;;;15.88;91.07
2397;BME280;1209;48.410;9.054;2024-03-17T11:49:05;96694.47;;;15.79;89.86
2397;BME280;1209;48.410;9.054;2024-03-17T11:51:34;96690.16;;;16.12;88.91
2397;BME280;1209;48.410;9.054;2024-03-17T11:54:00;96695.25;;;16.27;87.37
2397;BME280;1209;48.410;9.054;2024-03-17T11:56:26;96689.19;;;16.53;83.56
2397;BME280;1209;48.410;9.054;2024-03-17T11:59:06;96686.56;;;16.40;80.31
2397;BME280;1209;48.410;9.054;2024-03-17T12:01:34;96681.06;;;16.34;84.15
2397;BME280;1209;48.410;9.054;2024-03-17T12:03:59;96674.34;;;16.19;84.14
2397;BME280;1209;48.410;9.054;2024-03-17T12:06:29;96680.38;;;15.99;88.31
2397;BME280;1209;48.410;9.054;2024-03-17T12:08:54;96683.94;;;15.79;84.82
2397;BME280;1209;48.410;9.054;2024-03-17T12:11:20;96664.47;;;15.73;90.72
2397;BME280;1209;48.410;9.054;2024-03-17T12:13:47;96673.97;;;15.67;91.79
2397;BME280;1209;48.410;9.054;2024-03-17T12:16:13;96673.66;;;15.56;91.61
2397;BME280;1209;48.410;9.054;2024-03-17T12:18:40;96668.97;;;15.79;91.83
2397;BME280;1209;48.410;9.054;2024-03-17T12:21:13;96667.00;;;16.01;90.71
2397;BME280;1209;48.410;9.054;2024-03-17T12:23:39;96656.66;;;16.06;88.77
2397;BME280;1209;48.410;9.054;2024-03-17T12:26:05;96666.38;;;15.92;88.09
2397;BME280;1209;48.410;9.054;2024-03-17T12:28:40;96655.13;;;15.64;91.06
2397;BME280;1209;48.410;9.054;2024-03-17T12:31:05;96655.09;;;16.18;85.29
2397;BME280;1209;48.410;9.054;2024-03-17T12:33:31;96646.31;;;15.98;86.96
2397;BME280;1209;48.410;9.054;2024-03-17T12:35:56;96646.00;;;16.27;88.29
2397;BME280;1209;48.410;9.054;2024-03-17T12:38:25;96641.38;;;16.69;84.65
2397;BME280;1209;48.410;9.054;2024-03-17T12:40:50;96628.56;;;17.12;88.01
2397;BME280;1209;48.410;9.054;2024-03-17T12:43:16;96639.72;;;17.21;79.62
2397;BME280;1209;48.410;9.054;2024-03-17T12:45:41;96638.97;;;16.67;76.15
2397;BME280;1209;48.410;9.054;2024-03-17T12:48:14;96632.47;;;16.70;74.69
2397;BME280;1209;48.410;9.054;2024-03-17T12:50:46;96630.84;;;16.76;75.14
2397;BME280;1209;48.410;9.054;2024-03-17T12:53:16;96621.88;;;16.57;76.22
2397;BME280;1209;48.410;9.054;2024-03-17T12:55:53;96631.81;;;16.35;80.07
2397;BME280;1209;48.410;9.054;2024-03-17T12:58:37;96630.19;;;16.54;81.30
2397;BME280;1209;48.410;9.054;2024-03-17T13:01:21;96625.91;;;16.26;79.13
2397;BME280;1209;48.410;9.054;2024-03-17T13:03:46;96632.59;;;16.22;81.60
2397;BME280;1209;48.410;9.054;2024-03-17T13:06:22;96632.59;;;16.29;81.13
2397;BME280;1209;48.410;9.054;2024-03-17T13:08:51;96626.31;;;16.30;84.60
2397;BME280;1209;48.410;9.054;2024-03-17T13:11:17;96612.69;;;16.00;83.04
2397;BME280;1209;48.410;9.054;2024-03-17T13:13:42;96617.75;;;15.95;86.46
2397;BME280;1209;48.410;9.054;2024-03-17T13:16:09;96611.25;;;15.97;85.91
2397;BME280;1209;48.410;9.054;2024-03-17T13:18:37;96611.88;;;15.99;81.08
2397;BME280;1209;48.410;9.054;2024-03-17T13:21:03;96611.25;;;15.91;81.83
2397;BME280;1209;48.410;9.054;2024-03-17T13:23:28;96606.13;;;15.69;82.14
2397;BME280;1209;48.410;9.054;2024-03-17T13:25:55;96603.69;;;15.61;84.38
2397;BME280;1209;48.410;9.054;2024-03-17T13:28:20;96593.75;;;15.63;84.80
2397;BME280;1209;48.410;9.054;2024-03-17T13:30:45;96593.88;;;15.55;84.82
2397;BME280;1209;48.410;9.054;2024-03-17T13:33:12;96595.34;;;15.58;86.45
2397;BME280;1209;48.410;9.054;2024-03-17T13:35:39;96597.25;;;15.77;84.70
2397;BME280;1209;48.410;9.054;2024-03-17T13:38:09;96585.31;;;15.94;83.29
2397;BME280;1209;48.410;9.054;2024-03-17T13:40:37;96590.59;;;15.94;82.04